Flight NumberIRM1094 Date06.05.2018
Departure AirportOIKB Arrival AirportOIII
Departure Time6.22Arrival Time7.47
Pilot In CommandMohammadSadegh Ghanaat Block Time1.40 Hours
Pilot Rating100 % AircraftEP-MND [ 747-300 ]


Distance571.00 Nm. Passengers460
Fuel Used16,718 Kg. Cargo18830 Kg
Expense Details Income Details
Fuel Cost11,420 v$Ticket Sales80,500 v$
Pilot Salary3,386 v$ Cargo income24,716.00 v$
Crew Salary2,300 v$ Bonus18,814 v$
Gross Profit109,502 v$ ( 1,095,020 v$ )

Client Versionv2.2.0.rc3 Max Simrate1
Flight Critique Pilot CommentsOIII 060600Z 25008KT 8000 FEW040 22/07 Q1016 A3001 //ILS29L